Date,TemperatureHighF,TemperatureAvgF,TemperatureLowF,DewpointHighF,DewpointAvgF,DewpointLowF,HumidityHigh,HumidityAvg,HumidityLow,PressureMaxIn,PressureMinIn,WindSpeedMaxMPH,WindSpeedAvgMPH,GustSpeedMaxMPH,PrecipitationSumIn
2013-2-1,57,37,20,26,16,8,86,50,18,30.01,29.79,24,3,31,0.00
2013-2-2,64,41,22,24,14,3,79,40,9,30.18,29.89,11,1,13,0.00
2013-2-3,53,37,26,16,10,0,56,34,19,30.14,29.67,7,0,11,0.00
2013-2-4,64,42,26,14,5,-2,48,23,9,29.84,29.55,19,1,21,0.00
2013-2-5,59,46,28,17,12,7,48,27,16,29.84,29.53,11,1,19,0.00
2013-2-6,56,43,33,32,21,15,86,46,22,29.80,29.51,12,1,19,0.00
2013-2-7,48,37,25,31,17,4,86,49,17,30.03,29.79,14,2,20,0.00
2013-2-8,49,33,21,15,10,1,64,39,14,29.88,29.47,7,0,9,0.00
2013-2-9,50,32,24,28,17,3,84,57,27,29.59,29.35,12,1,14,0.00
2013-2-10,40,29,21,20,12,-4,78,54,26,29.95,29.40,13,5,19,0.02
2013-2-11,40,24,17,18,12,7,81,61,34,30.08,29.89,14,1,17,0.00
2013-2-12,46,30,12,14,4,-9,79,38,12,30.08,29.80,12,1,17,0.00
2013-2-13,50,33,22,10,4,-100,48,33,18,29.98,29.48,22,2,22,0.00
2013-2-14,34,27,22,22,16,6,78,64,32,30.25,29.74,12,1,14,0.00
2013-2-15,44,28,15,23,12,0,77,53,20,30.32,30.08,16,2,19,0.11
2013-2-16,63,46,21,20,9,2,71,26,12,30.07,29.63,19,3,28,0.00
2013-2-17,66,49,32,14,-1,-13,42,14,5,29.74,29.18,21,5,29,0.00
2013-2-18,43,32,22,20,10,-6,69,42,15,30.06,29.28,24,3,26,0.00
2013-2-19,43,29,19,13,7,2,57,40,23,30.10,29.62,11,1,12,0.00
2013-2-20,39,26,19,26,15,10,88,67,33,29.76,29.49,10,1,14,0.00
2013-2-21,33,22,15,20,15,9,84,74,51,29.87,29.59,10,0,11,0.26
2013-2-22,35,25,16,18,13,4,84,63,44,29.93,29.74,11,2,13,0.07
2013-2-23,43,29,15,26,15,1,88,58,33,29.77,29.46,10,2,10,0.00
2013-2-24,29,27,22,26,24,18,93,90,86,30.04,29.53,26,4,32,0.00
2013-2-25,39,25,12,25,16,7,86,69,42,30.13,29.75,11,0,13,0.28
2013-2-26,35,27,15,27,18,10,81,70,59,29.99,29.62,14,4,21,0.06
2013-2-27,44,31,16,17,8,3,64,42,20,30.26,29.65,17,2,17,0.00
2013-2-28,48,36,23,13,9,-1,48,35,16,30.20,29.72,14,1,16,0.00